sensor_id;sensor_type;location;lat;lon;timestamp;pressure;altitude;pressure_sealevel;temperature;humidity
75627;BME280;67372;49.404;11.034;2023-05-29T00:00:58;98240.38;;;14.56;51.70
75627;BME280;67372;49.404;11.034;2023-05-29T00:03:25;98243.00;;;14.51;51.80
75627;BME280;67372;49.404;11.034;2023-05-29T00:05:52;98238.09;;;14.48;51.91
75627;BME280;67372;49.404;11.034;2023-05-29T00:08:18;98251.84;;;14.40;52.44
75627;BME280;67372;49.404;11.034;2023-05-29T00:10:45;98250.13;;;14.34;52.10
75627;BME280;67372;49.404;11.034;2023-05-29T00:13:11;98247.13;;;14.30;52.18
75627;BME280;67372;49.404;11.034;2023-05-29T00:15:38;98244.34;;;14.25;52.28
75627;BME280;67372;49.404;11.034;2023-05-29T00:18:04;98245.06;;;14.21;52.35
75627;BME280;67372;49.404;11.034;2023-05-29T00:20:31;98255.91;;;14.14;52.54
75627;BME280;67372;49.404;11.034;2023-05-29T00:22:57;98243.69;;;14.06;52.65
75627;BME280;67372;49.404;11.034;2023-05-29T00:25:23;98252.22;;;14.03;52.75
75627;BME280;67372;49.404;11.034;2023-05-29T00:27:50;98250.25;;;13.99;52.63
75627;BME280;67372;49.404;11.034;2023-05-29T00:30:16;98260.84;;;13.94;52.75
75627;BME280;67372;49.404;11.034;2023-05-29T00:32:43;98250.25;;;13.87;52.79
75627;BME280;67372;49.404;11.034;2023-05-29T00:35:09;98250.41;;;13.80;52.98
75627;BME280;67372;49.404;11.034;2023-05-29T00:37:35;98245.75;;;13.76;53.04
75627;BME280;67372;49.404;11.034;2023-05-29T00:40:02;98247.25;;;13.72;52.98
75627;BME280;67372;49.404;11.034;2023-05-29T00:42:29;98248.19;;;13.66;53.53
75627;BME280;67372;49.404;11.034;2023-05-29T00:44:55;98242.72;;;13.61;53.34
75627;BME280;67372;49.404;11.034;2023-05-29T00:47:21;98244.25;;;13.57;53.78
75627;BME280;67372;49.404;11.034;2023-05-29T00:49:49;98237.38;;;13.49;54.25
75627;BME280;67372;49.404;11.034;2023-05-29T00:52:16;98248.19;;;13.42;54.35
75627;BME280;67372;49.404;11.034;2023-05-29T00:54:44;98248.09;;;13.37;54.64
75627;BME280;67372;49.404;11.034;2023-05-29T00:57:13;98248.56;;;13.34;54.72
75627;BME280;67372;49.404;11.034;2023-05-29T00:59:40;98250.91;;;13.31;55.22
75627;BME280;67372;49.404;11.034;2023-05-29T01:02:07;98256.56;;;13.23;55.32
75627;BME280;67372;49.404;11.034;2023-05-29T01:04:35;98260.97;;;13.17;55.61
75627;BME280;67372;49.404;11.034;2023-05-29T01:07:02;98255.50;;;13.12;56.35
75627;BME280;67372;49.404;11.034;2023-05-29T01:09:29;98259.13;;;13.06;56.44
75627;BME280;67372;49.404;11.034;2023-05-29T01:12:26;98258.03;;;12.95;57.29
75627;BME280;67372;49.404;11.034;2023-05-29T01:15:13;98259.53;;;12.91;57.55
75627;BME280;67372;49.404;11.034;2023-05-29T01:23:37;98250.06;;;12.77;57.30
75627;BME280;67372;49.404;11.034;2023-05-29T01:29:02;98239.94;;;12.67;56.89
75627;BME280;67372;49.404;11.034;2023-05-29T01:31:29;98243.28;;;12.63;57.00
75627;BME280;67372;49.404;11.034;2023-05-29T01:33:57;98239.44;;;12.58;57.37
75627;BME280;67372;49.404;11.034;2023-05-29T01:36:24;98239.69;;;12.57;57.44
75627;BME280;67372;49.404;11.034;2023-05-29T01:38:52;98240.50;;;12.57;58.01
75627;BME280;67372;49.404;11.034;2023-05-29T01:41:19;98245.50;;;12.54;58.46
75627;BME280;67372;49.404;11.034;2023-05-29T01:43:47;98246.16;;;12.49;58.83
75627;BME280;67372;49.404;11.034;2023-05-29T01:46:16;98241.72;;;12.43;59.01
75627;BME280;67372;49.404;11.034;2023-05-29T01:48:43;98239.94;;;12.37;59.09
75627;BME280;67372;49.404;11.034;2023-05-29T01:51:11;98235.88;;;12.35;59.08
75627;BME280;67372;49.404;11.034;2023-05-29T01:53:38;98231.78;;;12.32;59.33
75627;BME280;67372;49.404;11.034;2023-05-29T01:56:05;98233.25;;;12.28;60.18
75627;BME280;67372;49.404;11.034;2023-05-29T01:58:32;98230.22;;;12.24;60.54
75627;BME280;67372;49.404;11.034;2023-05-29T02:01:01;98233.00;;;12.18;61.08
75627;BME280;67372;49.404;11.034;2023-05-29T02:03:27;98233.09;;;12.11;60.63
75627;BME280;67372;49.404;11.034;2023-05-29T02:05:55;98230.88;;;12.08;60.18
75627;BME280;67372;49.404;11.034;2023-05-29T02:08:21;98223.50;;;12.04;61.10
75627;BME280;67372;49.404;11.034;2023-05-29T02:10:48;98229.06;;;12.02;61.11
75627;BME280;67372;49.404;11.034;2023-05-29T02:13:14;98226.84;;;11.99;60.79
75627;BME280;67372;49.404;11.034;2023-05-29T02:15:41;98223.22;;;11.93;60.87
75627;BME280;67372;49.404;11.034;2023-05-29T02:18:13;98224.94;;;11.88;61.73
75627;BME280;67372;49.404;11.034;2023-05-29T02:20:40;98228.88;;;11.85;61.17
75627;BME280;67372;49.404;11.034;2023-05-29T02:23:10;98230.13;;;11.83;61.24
75627;BME280;67372;49.404;11.034;2023-05-29T02:25:36;98227.69;;;11.81;61.55
75627;BME280;67372;49.404;11.034;2023-05-29T02:28:03;98227.09;;;11.79;62.13
75627;BME280;67372;49.404;11.034;2023-05-29T02:30:29;98223.44;;;11.74;62.24
75627;BME280;67372;49.404;11.034;2023-05-29T02:32:56;98227.38;;;11.71;62.20
75627;BME280;67372;49.404;11.034;2023-05-29T02:35:22;98221.66;;;11.67;62.27
75627;BME280;67372;49.404;11.034;2023-05-29T02:37:49;98216.97;;;11.63;63.40
75627;BME280;67372;49.404;11.034;2023-05-29T02:40:17;98213.94;;;11.59;62.28
75627;BME280;67372;49.404;11.034;2023-05-29T02:42:44;98224.22;;;11.56;63.12
75627;BME280;67372;49.404;11.034;2023-05-29T02:45:11;98217.47;;;11.53;62.60
75627;BME280;67372;49.404;11.034;2023-05-29T02:47:37;98214.00;;;11.53;62.89
75627;BME280;67372;49.404;11.034;2023-05-29T02:50:05;98211.31;;;11.53;62.71
75627;BME280;67372;49.404;11.034;2023-05-29T02:52:32;98223.50;;;11.49;62.49
75627;BME280;67372;49.404;11.034;2023-05-29T02:54:58;98224.75;;;11.46;63.79
75627;BME280;67372;49.404;11.034;2023-05-29T02:57:24;98223.56;;;11.42;63.33
75627;BME280;67372;49.404;11.034;2023-05-29T02:59:51;98217.84;;;11.38;63.90
75627;BME280;67372;49.404;11.034;2023-05-29T03:02:18;98221.59;;;11.31;63.90
75627;BME280;67372;49.404;11.034;2023-05-29T03:04:44;98217.53;;;11.28;64.08
75627;BME280;67372;49.404;11.034;2023-05-29T03:07:11;98212.63;;;11.25;63.31
75627;BME280;67372;49.404;11.034;2023-05-29T03:09:37;98218.78;;;11.26;63.75
75627;BME280;67372;49.404;11.034;2023-05-29T03:12:04;98219.00;;;11.24;63.91
75627;BME280;67372;49.404;11.034;2023-05-29T03:14:30;98219.91;;;11.18;64.61
75627;BME280;67372;49.404;11.034;2023-05-29T03:16:57;98224.41;;;11.18;64.34
75627;BME280;67372;49.404;11.034;2023-05-29T03:19:23;98221.75;;;11.18;63.54
75627;BME280;67372;49.404;11.034;2023-05-29T03:21:50;98223.59;;;11.17;63.97
75627;BME280;67372;49.404;11.034;2023-05-29T03:24:16;98216.41;;;11.18;63.70
75627;BME280;67372;49.404;11.034;2023-05-29T03:26:42;98223.00;;;11.15;64.51
75627;BME280;67372;49.404;11.034;2023-05-29T03:29:09;98231.63;;;11.17;62.95
75627;BME280;67372;49.404;11.034;2023-05-29T03:31:35;98228.50;;;11.20;62.97
75627;BME280;67372;49.404;11.034;2023-05-29T03:34:02;98228.06;;;11.23;63.79
75627;BME280;67372;49.404;11.034;2023-05-29T03:36:28;98228.22;;;11.28;62.91
75627;BME280;67372;49.404;11.034;2023-05-29T03:38:54;98232.28;;;11.31;63.04
75627;BME280;67372;49.404;11.034;2023-05-29T03:41:21;98232.06;;;11.32;62.92
75627;BME280;67372;49.404;11.034;2023-05-29T03:43:47;98231.03;;;11.33;63.25
75627;BME280;67372;49.404;11.034;2023-05-29T03:46:14;98229.84;;;11.29;63.65
75627;BME280;67372;49.404;11.034;2023-05-29T03:48:40;98230.66;;;11.30;63.17
75627;BME280;67372;49.404;11.034;2023-05-29T03:51:06;98234.53;;;11.34;63.22
75627;BME280;67372;49.404;11.034;2023-05-29T03:53:33;98240.03;;;11.39;64.17
75627;BME280;67372;49.404;11.034;2023-05-29T03:55:59;98240.72;;;11.53;64.54
75627;BME280;67372;49.404;11.034;2023-05-29T03:58:26;98233.06;;;11.75;64.96
75627;BME280;67372;49.404;11.034;2023-05-29T04:00:52;98235.00;;;12.04;64.75
75627;BME280;67372;49.404;11.034;2023-05-29T04:03:18;98235.50;;;12.31;63.45
75627;BME280;67372;49.404;11.034;2023-05-29T04:05:45;98244.06;;;12.51;63.30
75627;BME280;67372;49.404;11.034;2023-05-29T04:08:11;98248.53;;;12.69;62.79
75627;BME280;67372;49.404;11.034;2023-05-29T04:10:41;98259.41;;;12.86;62.55
75627;BME280;67372;49.404;11.034;2023-05-29T04:13:08;98259.81;;;13.01;61.57
75627;BME280;67372;49.404;11.034;2023-05-29T04:15:34;98256.56;;;13.23;61.80
75627;BME280;67372;49.404;11.034;2023-05-29T04:18:00;98267.56;;;13.56;61.56
75627;BME280;67372;49.404;11.034;2023-05-29T04:20:27;98267.53;;;13.79;61.53
75627;BME280;67372;49.404;11.034;2023-05-29T04:22:53;98270.19;;;14.03;60.77
75627;BME280;67372;49.404;11.034;2023-05-29T04:25:20;98270.59;;;14.23;60.33
75627;BME280;67372;49.404;11.034;2023-05-29T04:27:46;98268.19;;;14.38;59.76
75627;BME280;67372;49.404;11.034;2023-05-29T04:30:12;98271.06;;;14.60;59.35
75627;BME280;67372;49.404;11.034;2023-05-29T04:32:39;98269.41;;;14.88;59.31
75627;BME280;67372;49.404;11.034;2023-05-29T04:35:05;98273.81;;;15.11;59.00
75627;BME280;67372;49.404;11.034;2023-05-29T04:37:32;98277.84;;;15.25;58.53
75627;BME280;67372;49.404;11.034;2023-05-29T04:39:58;98283.84;;;15.32;58.59
75627;BME280;67372;49.404;11.034;2023-05-29T04:42:24;98283.59;;;15.33;58.04
75627;BME280;67372;49.404;11.034;2023-05-29T04:44:51;98283.28;;;15.30;57.78
75627;BME280;67372;49.404;11.034;2023-05-29T04:47:18;98288.25;;;15.21;57.10
75627;BME280;67372;49.404;11.034;2023-05-29T04:49:45;98290.75;;;15.11;57.50
75627;BME280;67372;49.404;11.034;2023-05-29T04:52:11;98301.44;;;15.06;57.05
75627;BME280;67372;49.404;11.034;2023-05-29T04:54:38;98299.72;;;15.00;57.16
75627;BME280;67372;49.404;11.034;2023-05-29T04:57:04;98307.00;;;14.88;57.34
75627;BME280;67372;49.404;11.034;2023-05-29T04:59:31;98321.22;;;14.71;57.42
75627;BME280;67372;49.404;11.034;2023-05-29T05:01:57;98321.25;;;14.60;57.95
75627;BME280;67372;49.404;11.034;2023-05-29T05:04:24;98317.91;;;14.53;58.04
75627;BME280;67372;49.404;11.034;2023-05-29T05:06:51;98322.13;;;14.49;58.96
75627;BME280;67372;49.404;11.034;2023-05-29T05:09:17;98330.03;;;14.55;58.36
75627;BME280;67372;49.404;11.034;2023-05-29T05:11:44;98323.94;;;14.60;58.05
75627;BME280;67372;49.404;11.034;2023-05-29T05:14:10;98326.47;;;14.66;56.58
75627;BME280;67372;49.404;11.034;2023-05-29T05:16:36;98319.84;;;14.69;54.98
75627;BME280;67372;49.404;11.034;2023-05-29T05:19:03;98324.44;;;14.85;53.98
75627;BME280;67372;49.404;11.034;2023-05-29T05:21:29;98325.00;;;14.87;52.88
75627;BME280;67372;49.404;11.034;2023-05-29T05:23:56;98320.63;;;14.98;53.42
75627;BME280;67372;49.404;11.034;2023-05-29T05:26:24;98325.84;;;15.04;52.09
75627;BME280;67372;49.404;11.034;2023-05-29T05:28:51;98325.25;;;15.14;52.23
75627;BME280;67372;49.404;11.034;2023-05-29T05:31:17;98329.38;;;15.22;51.90
75627;BME280;67372;49.404;11.034;2023-05-29T05:33:43;98335.97;;;15.31;51.31
75627;BME280;67372;49.404;11.034;2023-05-29T05:36:10;98335.34;;;15.41;51.68
75627;BME280;67372;49.404;11.034;2023-05-29T05:38:36;98337.63;;;15.49;50.51
75627;BME280;67372;49.404;11.034;2023-05-29T05:41:03;98341.78;;;15.56;50.97
75627;BME280;67372;49.404;11.034;2023-05-29T05:43:29;98346.28;;;15.68;50.72
75627;BME280;67372;49.404;11.034;2023-05-29T05:45:55;98348.06;;;15.79;50.52
75627;BME280;67372;49.404;11.034;2023-05-29T05:48:22;98346.13;;;15.91;49.77
75627;BME280;67372;49.404;11.034;2023-05-29T05:50:48;98347.56;;;15.99;49.60
75627;BME280;67372;49.404;11.034;2023-05-29T05:53:15;98355.53;;;16.10;48.82
75627;BME280;67372;49.404;11.034;2023-05-29T05:55:41;98354.34;;;16.23;49.19
75627;BME280;67372;49.404;11.034;2023-05-29T05:58:08;98364.06;;;16.24;47.51
75627;BME280;67372;49.404;11.034;2023-05-29T06:00:34;98364.13;;;16.29;47.96
75627;BME280;67372;49.404;11.034;2023-05-29T06:03:01;98358.72;;;16.29;47.05
75627;BME280;67372;49.404;11.034;2023-05-29T06:05:28;98363.97;;;16.36;48.30
75627;BME280;67372;49.404;11.034;2023-05-29T06:07:54;98359.56;;;16.51;48.06
75627;BME280;67372;49.404;11.034;2023-05-29T06:10:21;98358.38;;;16.64;47.52
75627;BME280;67372;49.404;11.034;2023-05-29T06:12:47;98361.66;;;16.66;46.12
75627;BME280;67372;49.404;11.034;2023-05-29T06:15:14;98363.09;;;16.74;47.97
75627;BME280;67372;49.404;11.034;2023-05-29T06:17:40;98367.28;;;16.86;46.93
75627;BME280;67372;49.404;11.034;2023-05-29T06:20:07;98360.06;;;16.92;46.09
75627;BME280;67372;49.404;11.034;2023-05-29T06:22:33;98364.75;;;17.02;45.68
75627;BME280;67372;49.404;11.034;2023-05-29T06:25:00;98363.03;;;17.17;46.29
75627;BME280;67372;49.404;11.034;2023-05-29T06:27:30;98356.94;;;17.27;45.68
75627;BME280;67372;49.404;11.034;2023-05-29T06:29:56;98368.88;;;17.36;45.60
75627;BME280;67372;49.404;11.034;2023-05-29T06:32:23;98368.41;;;17.44;45.15
75627;BME280;67372;49.404;11.034;2023-05-29T06:34:49;98371.13;;;17.49;43.88
75627;BME280;67372;49.404;11.034;2023-05-29T06:37:15;98372.31;;;17.59;43.90
75627;BME280;67372;49.404;11.034;2023-05-29T06:39:45;98373.22;;;17.69;44.18
75627;BME280;67372;49.404;11.034;2023-05-29T06:42:11;98381.00;;;17.66;43.21
75627;BME280;67372;49.404;11.034;2023-05-29T06:44:38;98375.41;;;17.72;43.54
75627;BME280;67372;49.404;11.034;2023-05-29T06:47:05;98375.72;;;17.76;43.19
75627;BME280;67372;49.404;11.034;2023-05-29T06:49:32;98366.88;;;17.86;43.35
75627;BME280;67372;49.404;11.034;2023-05-29T06:51:58;98373.66;;;17.93;42.92
75627;BME280;67372;49.404;11.034;2023-05-29T06:54:24;98373.97;;;17.97;42.79
75627;BME280;67372;49.404;11.034;2023-05-29T06:56:51;98372.41;;;18.06;42.98
75627;BME280;67372;49.404;11.034;2023-05-29T06:59:34;98377.31;;;18.14;41.62
75627;BME280;67372;49.404;11.034;2023-05-29T07:02:01;98380.59;;;18.21;42.62
75627;BME280;67372;49.404;11.034;2023-05-29T07:04:27;98376.09;;;18.37;42.69
75627;BME280;67372;49.404;11.034;2023-05-29T07:06:54;98381.03;;;18.50;41.53
75627;BME280;67372;49.404;11.034;2023-05-29T07:09:20;98370.59;;;18.64;42.40
75627;BME280;67372;49.404;11.034;2023-05-29T07:11:46;98373.06;;;18.76;41.98
75627;BME280;67372;49.404;11.034;2023-05-29T07:14:13;98367.41;;;18.87;41.86
75627;BME280;67372;49.404;11.034;2023-05-29T07:16:39;98362.28;;;18.91;40.80
75627;BME280;67372;49.404;11.034;2023-05-29T07:19:05;98369.09;;;18.98;41.44
75627;BME280;67372;49.404;11.034;2023-05-29T07:21:32;98371.25;;;19.01;40.83
75627;BME280;67372;49.404;11.034;2023-05-29T07:23:59;98369.91;;;19.14;40.04
75627;BME280;67372;49.404;11.034;2023-05-29T07:26:25;98371.84;;;19.19;39.04
75627;BME280;67372;49.404;11.034;2023-05-29T07:28:52;98372.94;;;19.28;40.06
75627;BME280;67372;49.404;11.034;2023-05-29T07:31:18;98373.19;;;19.31;39.84
75627;BME280;67372;49.404;11.034;2023-05-29T07:33:45;98371.31;;;19.27;39.22
75627;BME280;67372;49.404;11.034;2023-05-29T07:36:11;98370.78;;;19.30;39.61
75627;BME280;67372;49.404;11.034;2023-05-29T07:38:37;98372.41;;;19.41;39.38
75627;BME280;67372;49.404;11.034;2023-05-29T07:41:04;98363.22;;;19.52;39.66
75627;BME280;67372;49.404;11.034;2023-05-29T07:43:30;98368.13;;;19.66;38.69
75627;BME280;67372;49.404;11.034;2023-05-29T07:45:56;98367.03;;;19.67;37.61
75627;BME280;67372;49.404;11.034;2023-05-29T07:48:23;98379.75;;;19.71;37.84
75627;BME280;67372;49.404;11.034;2023-05-29T07:50:49;98377.31;;;19.75;37.71
75627;BME280;67372;49.404;11.034;2023-05-29T07:53:16;98376.78;;;19.83;37.17
75627;BME280;67372;49.404;11.034;2023-05-29T07:55:42;98380.84;;;19.96;38.42
75627;BME280;67372;49.404;11.034;2023-05-29T07:58:08;98380.03;;;19.95;37.21
75627;BME280;67372;49.404;11.034;2023-05-29T08:00:37;98376.75;;;20.08;37.04
75627;BME280;67372;49.404;11.034;2023-05-29T08:03:04;98381.06;;;20.24;37.34
75627;BME280;67372;49.404;11.034;2023-05-29T08:05:30;98375.63;;;20.24;35.84
75627;BME280;67372;49.404;11.034;2023-05-29T08:07:57;98373.72;;;20.35;35.78
75627;BME280;67372;49.404;11.034;2023-05-29T08:10:23;98371.25;;;20.49;36.51
75627;BME280;67372;49.404;11.034;2023-05-29T08:12:50;98376.66;;;20.54;34.73
75627;BME280;67372;49.404;11.034;2023-05-29T08:15:16;98372.56;;;20.62;34.60
75627;BME280;67372;49.404;11.034;2023-05-29T08:17:42;98369.88;;;20.62;33.91
75627;BME280;67372;49.404;11.034;2023-05-29T08:20:09;98364.97;;;20.64;33.21
75627;BME280;67372;49.404;11.034;2023-05-29T08:22:36;98371.22;;;20.54;32.86
75627;BME280;67372;49.404;11.034;2023-05-29T08:25:02;98373.94;;;20.54;33.92
75627;BME280;67372;49.404;11.034;2023-05-29T08:27:28;98366.34;;;20.61;33.87
75627;BME280;67372;49.404;11.034;2023-05-29T08:29:55;98367.41;;;20.65;33.57
75627;BME280;67372;49.404;11.034;2023-05-29T08:32:21;98361.94;;;20.75;32.76
75627;BME280;67372;49.404;11.034;2023-05-29T08:34:48;98368.94;;;20.81;32.83
75627;BME280;67372;49.404;11.034;2023-05-29T08:37:14;98371.91;;;20.90;33.10
75627;BME280;67372;49.404;11.034;2023-05-29T08:39:40;98369.72;;;20.92;32.52
75627;BME280;67372;49.404;11.034;2023-05-29T08:42:11;98369.13;;;21.00;33.41
75627;BME280;67372;49.404;11.034;2023-05-29T08:44:39;98357.44;;;21.05;33.00
75627;BME280;67372;49.404;11.034;2023-05-29T08:47:07;98358.75;;;21.12;32.26
75627;BME280;67372;49.404;11.034;2023-05-29T08:49:40;98367.19;;;21.11;31.69
75627;BME280;67372;49.404;11.034;2023-05-29T08:52:16;98354.63;;;21.20;31.63
75627;BME280;67372;49.404;11.034;2023-05-29T08:54:45;98357.56;;;21.29;31.08
75627;BME280;67372;49.404;11.034;2023-05-29T08:57:12;98354.28;;;21.37;31.68
75627;BME280;67372;49.404;11.034;2023-05-29T08:59:43;98357.44;;;21.49;30.83
75627;BME280;67372;49.404;11.034;2023-05-29T09:02:11;98351.13;;;21.59;30.31
75627;BME280;67372;49.404;11.034;2023-05-29T09:04:38;98346.50;;;21.59;29.46
75627;BME280;67372;49.404;11.034;2023-05-29T09:07:04;98347.28;;;21.65;29.20
75627;BME280;67372;49.404;11.034;2023-05-29T09:09:31;98348.09;;;21.65;28.96
75627;BME280;67372;49.404;11.034;2023-05-29T09:11:57;98341.56;;;21.66;29.07
75627;BME280;67372;49.404;11.034;2023-05-29T09:14:42;98338.75;;;21.76;29.31
75627;BME280;67372;49.404;11.034;2023-05-29T09:17:11;98343.84;;;21.83;29.87
75627;BME280;67372;49.404;11.034;2023-05-29T09:19:38;98341.59;;;21.90;30.19
75627;BME280;67372;49.404;11.034;2023-05-29T09:22:12;98333.97;;;21.92;29.76
75627;BME280;67372;49.404;11.034;2023-05-29T09:24:39;98335.78;;;22.07;30.10
75627;BME280;67372;49.404;11.034;2023-05-29T09:27:06;98341.66;;;22.14;30.22
75627;BME280;67372;49.404;11.034;2023-05-29T09:29:33;98364.28;;;22.10;29.62
75627;BME280;67372;49.404;11.034;2023-05-29T09:31:59;98353.41;;;22.10;29.98
75627;BME280;67372;49.404;11.034;2023-05-29T09:34:30;98345.78;;;22.12;30.03
75627;BME280;67372;49.404;11.034;2023-05-29T09:37:07;98346.47;;;22.22;29.64
75627;BME280;67372;49.404;11.034;2023-05-29T09:39:50;98358.88;;;22.33;29.76
75627;BME280;67372;49.404;11.034;2023-05-29T09:42:17;98342.25;;;22.35;29.10
75627;BME280;67372;49.404;11.034;2023-05-29T09:44:46;98347.94;;;22.39;28.59
75627;BME280;67372;49.404;11.034;2023-05-29T09:47:18;98344.91;;;22.40;28.43
75627;BME280;67372;49.404;11.034;2023-05-29T09:49:45;98346.44;;;22.51;29.37
75627;BME280;67372;49.404;11.034;2023-05-29T09:52:13;98350.34;;;22.64;29.69
75627;BME280;67372;49.404;11.034;2023-05-29T09:54:39;98336.56;;;22.79;28.82
75627;BME280;67372;49.404;11.034;2023-05-29T09:57:07;98347.31;;;22.89;28.44
75627;BME280;67372;49.404;11.034;2023-05-29T09:59:36;98351.25;;;23.02;28.65
75627;BME280;67372;49.404;11.034;2023-05-29T10:02:04;98349.47;;;23.11;28.49
75627;BME280;67372;49.404;11.034;2023-05-29T10:04:31;98339.31;;;23.17;28.70
75627;BME280;67372;49.404;11.034;2023-05-29T10:07:00;98345.44;;;23.27;28.58
75627;BME280;67372;49.404;11.034;2023-05-29T10:09:30;98351.22;;;23.40;28.37
75627;BME280;67372;49.404;11.034;2023-05-29T10:11:59;98345.41;;;23.46;27.16
75627;BME280;67372;49.404;11.034;2023-05-29T10:14:29;98349.53;;;23.44;25.83
75627;BME280;67372;49.404;11.034;2023-05-29T10:16:58;98339.88;;;23.51;26.49
75627;BME280;67372;49.404;11.034;2023-05-29T10:19:29;98335.09;;;23.62;26.24
75627;BME280;67372;49.404;11.034;2023-05-29T10:21:56;98324.94;;;23.68;26.27
75627;BME280;67372;49.404;11.034;2023-05-29T10:24:24;98330.00;;;23.74;26.16
75627;BME280;67372;49.404;11.034;2023-05-29T10:26:52;98327.47;;;23.78;25.72
75627;BME280;67372;49.404;11.034;2023-05-29T10:29:30;98317.69;;;23.77;25.57
75627;BME280;67372;49.404;11.034;2023-05-29T10:34:43;98313.50;;;23.66;25.15
75627;BME280;67372;49.404;11.034;2023-05-29T10:37:26;98316.06;;;23.76;26.39
75627;BME280;67372;49.404;11.034;2023-05-29T10:40:06;98329.09;;;23.79;25.49
75627;BME280;67372;49.404;11.034;2023-05-29T10:42:46;98317.56;;;23.68;25.20
75627;BME280;67372;49.404;11.034;2023-05-29T10:50:40;98312.69;;;23.65;24.80
75627;BME280;67372;49.404;11.034;2023-05-29T10:53:08;98313.81;;;23.64;24.99
75627;BME280;67372;49.404;11.034;2023-05-29T10:55:35;98313.13;;;23.72;24.30
75627;BME280;67372;49.404;11.034;2023-05-29T10:58:12;98304.47;;;23.84;23.92
75627;BME280;67372;49.404;11.034;2023-05-29T11:00:42;98302.19;;;23.91;24.09
75627;BME280;67372;49.404;11.034;2023-05-29T11:03:09;98303.69;;;23.97;23.00
75627;BME280;67372;49.404;11.034;2023-05-29T11:06:16;98303.41;;;23.99;21.89
75627;BME280;67372;49.404;11.034;2023-05-29T11:08:45;98306.28;;;23.88;22.60
75627;BME280;67372;49.404;11.034;2023-05-29T11:11:15;98303.06;;;23.86;23.31
75627;BME280;67372;49.404;11.034;2023-05-29T11:13:51;98302.34;;;23.81;22.59
75627;BME280;67372;49.404;11.034;2023-05-29T11:18:52;98312.47;;;23.94;22.48
75627;BME280;67372;49.404;11.034;2023-05-29T11:21:31;98305.00;;;24.00;22.24
75627;BME280;67372;49.404;11.034;2023-05-29T11:24:00;98299.44;;;24.05;22.40
75627;BME280;67372;49.404;11.034;2023-05-29T11:26:27;98296.31;;;24.11;22.84
75627;BME280;67372;49.404;11.034;2023-05-29T11:28:57;98288.66;;;24.27;22.95
75627;BME280;67372;49.404;11.034;2023-05-29T11:31:24;98296.78;;;24.46;23.23
75627;BME280;67372;49.404;11.034;2023-05-29T11:33:54;98286.25;;;24.53;21.93
75627;BME280;67372;49.404;11.034;2023-05-29T11:36:26;98284.50;;;24.71;23.04
75627;BME280;67372;49.404;11.034;2023-05-29T11:38:52;98294.50;;;24.75;22.41
75627;BME280;67372;49.404;11.034;2023-05-29T11:41:19;98295.31;;;24.76;23.10
75627;BME280;67372;49.404;11.034;2023-05-29T11:43:59;98294.47;;;24.89;22.46
75627;BME280;67372;49.404;11.034;2023-05-29T11:46:25;98296.41;;;24.75;22.30
75627;BME280;67372;49.404;11.034;2023-05-29T11:48:52;98297.84;;;24.72;22.65
75627;BME280;67372;49.404;11.034;2023-05-29T11:51:18;98289.84;;;24.76;22.90
75627;BME280;67372;49.404;11.034;2023-05-29T11:53:46;98300.56;;;24.86;22.21
75627;BME280;67372;49.404;11.034;2023-05-29T11:56:13;98294.03;;;24.96;22.08
75627;BME280;67372;49.404;11.034;2023-05-29T11:58:40;98296.78;;;24.96;21.78
75627;BME280;67372;49.404;11.034;2023-05-29T12:01:08;98304.38;;;24.99;21.74
75627;BME280;67372;49.404;11.034;2023-05-29T12:03:41;98288.09;;;24.94;21.42
75627;BME280;67372;49.404;11.034;2023-05-29T12:06:11;98302.34;;;24.91;21.18
75627;BME280;67372;49.404;11.034;2023-05-29T12:08:38;98298.63;;;24.87;21.51
75627;BME280;67372;49.404;11.034;2023-05-29T12:11:05;98286.97;;;24.95;21.89
75627;BME280;67372;49.404;11.034;2023-05-29T12:13:32;98284.84;;;25.05;22.04
75627;BME280;67372;49.404;11.034;2023-05-29T12:16:01;98302.41;;;25.13;21.26
75627;BME280;67372;49.404;11.034;2023-05-29T12:18:29;98290.06;;;25.16;22.03
75627;BME280;67372;49.404;11.034;2023-05-29T12:21:03;98280.94;;;25.20;21.46
75627;BME280;67372;49.404;11.034;2023-05-29T12:23:29;98270.97;;;25.16;21.79
75627;BME280;67372;49.404;11.034;2023-05-29T12:25:58;98278.03;;;25.17;21.74
75627;BME280;67372;49.404;11.034;2023-05-29T12:28:25;98278.47;;;25.10;21.65
75627;BME280;67372;49.404;11.034;2023-05-29T12:30:58;98283.13;;;25.09;21.96
75627;BME280;67372;49.404;11.034;2023-05-29T12:33:29;98281.78;;;25.07;22.20
75627;BME280;67372;49.404;11.034;2023-05-29T12:36:07;98283.03;;;25.01;21.58
75627;BME280;67372;49.404;11.034;2023-05-29T12:38:49;98279.34;;;25.19;22.31
75627;BME280;67372;49.404;11.034;2023-05-29T12:41:26;98281.31;;;25.27;21.38
75627;BME280;67372;49.404;11.034;2023-05-29T12:43:54;98280.50;;;25.27;21.34
75627;BME280;67372;49.404;11.034;2023-05-29T12:46:21;98275.03;;;25.27;21.73
75627;BME280;67372;49.404;11.034;2023-05-29T12:48:47;98267.28;;;25.43;21.81
75627;BME280;67372;49.404;11.034;2023-05-29T12:51:13;98266.63;;;25.37;21.86
75627;BME280;67372;49.404;11.034;2023-05-29T12:53:40;98267.59;;;25.41;21.68
75627;BME280;67372;49.404;11.034;2023-05-29T12:56:07;98268.41;;;25.42;22.28
75627;BME280;67372;49.404;11.034;2023-05-29T12:58:35;98269.84;;;25.39;21.65
75627;BME280;67372;49.404;11.034;2023-05-29T13:01:01;98270.66;;;25.39;21.87
75627;BME280;67372;49.404;11.034;2023-05-29T13:03:29;98264.41;;;25.48;22.07
75627;BME280;67372;49.404;11.034;2023-05-29T13:05:56;98255.78;;;25.54;22.20
75627;BME280;67372;49.404;11.034;2023-05-29T13:08:23;98261.31;;;25.63;22.19
75627;BME280;67372;49.404;11.034;2023-05-29T13:10:49;98257.41;;;25.55;22.42
75627;BME280;67372;49.404;11.034;2023-05-29T13:13:16;98267.50;;;25.55;21.66